sensor_id;sensor_type;location;lat;lon;timestamp;P1;durP1;ratioP1;P2;durP2;ratioP2
33579;SDS011;19909;43.644;-79.438;2023-01-20T00:01:06;0.63;;;0.35;;
33579;SDS011;19909;43.644;-79.438;2023-01-20T00:03:34;0.40;;;0.32;;
33579;SDS011;19909;43.644;-79.438;2023-01-20T00:06:00;0.45;;;0.20;;
33579;SDS011;19909;43.644;-79.438;2023-01-20T00:08:26;1.67;;;0.30;;
33579;SDS011;19909;43.644;-79.438;2023-01-20T00:10:52;0.40;;;0.30;;
33579;SDS011;19909;43.644;-79.438;2023-01-20T00:13:19;0.50;;;0.28;;
33579;SDS011;19909;43.644;-79.438;2023-01-20T00:15:45;0.40;;;0.20;;
33579;SDS011;19909;43.644;-79.438;2023-01-20T00:18:12;0.60;;;0.40;;
33579;SDS011;19909;43.644;-79.438;2023-01-20T00:20:39;0.40;;;0.40;;
33579;SDS011;19909;43.644;-79.438;2023-01-20T00:23:05;1.30;;;0.38;;
33579;SDS011;19909;43.644;-79.438;2023-01-20T00:25:34;1.10;;;0.40;;
33579;SDS011;19909;43.644;-79.438;2023-01-20T00:28:01;1.08;;;0.38;;
33579;SDS011;19909;43.644;-79.438;2023-01-20T00:30:27;0.50;;;0.30;;
33579;SDS011;19909;43.644;-79.438;2023-01-20T00:32:53;0.68;;;0.52;;
33579;SDS011;19909;43.644;-79.438;2023-01-20T00:35:20;0.80;;;0.40;;
33579;SDS011;19909;43.644;-79.438;2023-01-20T00:37:46;0.50;;;0.32;;
33579;SDS011;19909;43.644;-79.438;2023-01-20T00:40:12;0.75;;;0.63;;
33579;SDS011;19909;43.644;-79.438;2023-01-20T00:42:38;0.47;;;0.40;;
33579;SDS011;19909;43.644;-79.438;2023-01-20T00:45:05;0.85;;;0.55;;
33579;SDS011;19909;43.644;-79.438;2023-01-20T00:47:31;0.80;;;0.50;;
33579;SDS011;19909;43.644;-79.438;2023-01-20T00:49:58;1.52;;;0.55;;
33579;SDS011;19909;43.644;-79.438;2023-01-20T00:52:24;0.60;;;0.45;;
33579;SDS011;19909;43.644;-79.438;2023-01-20T00:54:50;0.82;;;0.40;;
33579;SDS011;19909;43.644;-79.438;2023-01-20T00:57:16;0.68;;;0.50;;
33579;SDS011;19909;43.644;-79.438;2023-01-20T00:59:43;0.40;;;0.38;;
33579;SDS011;19909;43.644;-79.438;2023-01-20T01:02:09;1.30;;;0.60;;
33579;SDS011;19909;43.644;-79.438;2023-01-20T01:04:35;0.93;;;0.40;;
33579;SDS011;19909;43.644;-79.438;2023-01-20T01:07:02;0.63;;;0.30;;
33579;SDS011;19909;43.644;-79.438;2023-01-20T01:09:28;0.45;;;0.38;;
33579;SDS011;19909;43.644;-79.438;2023-01-20T01:11:54;0.60;;;0.38;;
33579;SDS011;19909;43.644;-79.438;2023-01-20T01:14:21;0.43;;;0.40;;
33579;SDS011;19909;43.644;-79.438;2023-01-20T01:16:47;0.60;;;0.30;;
33579;SDS011;19909;43.644;-79.438;2023-01-20T01:19:13;0.28;;;0.20;;
33579;SDS011;19909;43.644;-79.438;2023-01-20T01:21:42;0.40;;;0.25;;
33579;SDS011;19909;43.644;-79.438;2023-01-20T01:24:09;0.30;;;0.20;;
33579;SDS011;19909;43.644;-79.438;2023-01-20T01:26:35;0.47;;;0.22;;
33579;SDS011;19909;43.644;-79.438;2023-01-20T01:29:01;0.32;;;0.30;;
33579;SDS011;19909;43.644;-79.438;2023-01-20T01:31:27;0.70;;;0.22;;
33579;SDS011;19909;43.644;-79.438;2023-01-20T01:33:54;0.20;;;0.10;;
33579;SDS011;19909;43.644;-79.438;2023-01-20T01:36:20;0.25;;;0.25;;
33579;SDS011;19909;43.644;-79.438;2023-01-20T01:38:46;1.42;;;0.30;;
33579;SDS011;19909;43.644;-79.438;2023-01-20T01:41:13;0.90;;;0.28;;
33579;SDS011;19909;43.644;-79.438;2023-01-20T01:44:23;0.65;;;0.20;;
33579;SDS011;19909;43.644;-79.438;2023-01-20T01:46:32;0.63;;;0.20;;
33579;SDS011;19909;43.644;-79.438;2023-01-20T01:48:59;0.40;;;0.40;;
33579;SDS011;19909;43.644;-79.438;2023-01-20T01:51:51;0.60;;;0.40;;
33579;SDS011;19909;43.644;-79.438;2023-01-20T01:54:24;0.20;;;0.20;;
33579;SDS011;19909;43.644;-79.438;2023-01-20T01:56:54;0.40;;;0.32;;
33579;SDS011;19909;43.644;-79.438;2023-01-20T01:59:20;0.95;;;0.35;;
33579;SDS011;19909;43.644;-79.438;2023-01-20T02:01:48;0.40;;;0.25;;
33579;SDS011;19909;43.644;-79.438;2023-01-20T02:04:18;0.55;;;0.30;;
33579;SDS011;19909;43.644;-79.438;2023-01-20T02:06:48;0.50;;;0.40;;
33579;SDS011;19909;43.644;-79.438;2023-01-20T02:09:26;0.50;;;0.40;;
33579;SDS011;19909;43.644;-79.438;2023-01-20T02:11:55;0.40;;;0.38;;
33579;SDS011;19909;43.644;-79.438;2023-01-20T02:14:27;0.55;;;0.30;;
33579;SDS011;19909;43.644;-79.438;2023-01-20T02:19:42;0.50;;;0.20;;
33579;SDS011;19909;43.644;-79.438;2023-01-20T02:22:45;0.68;;;0.35;;
33579;SDS011;19909;43.644;-79.438;2023-01-20T02:34:02;1.70;;;0.60;;
33579;SDS011;19909;43.644;-79.438;2023-01-20T02:36:44;0.55;;;0.45;;
33579;SDS011;19909;43.644;-79.438;2023-01-20T02:39:31;0.65;;;0.45;;
33579;SDS011;19909;43.644;-79.438;2023-01-20T02:42:24;0.68;;;0.50;;
33579;SDS011;19909;43.644;-79.438;2023-01-20T02:47:45;0.50;;;0.40;;
33579;SDS011;19909;43.644;-79.438;2023-01-20T02:50:39;0.65;;;0.40;;
33579;SDS011;19909;43.644;-79.438;2023-01-20T02:53:12;0.40;;;0.30;;
33579;SDS011;19909;43.644;-79.438;2023-01-20T02:55:43;0.77;;;0.47;;
33579;SDS011;19909;43.644;-79.438;2023-01-20T02:58:18;0.20;;;0.20;;
33579;SDS011;19909;43.644;-79.438;2023-01-20T03:00:52;0.70;;;0.43;;
33579;SDS011;19909;43.644;-79.438;2023-01-20T03:03:25;0.68;;;0.57;;
33579;SDS011;19909;43.644;-79.438;2023-01-20T03:05:57;0.93;;;0.70;;
33579;SDS011;19909;43.644;-79.438;2023-01-20T03:08:27;1.30;;;0.68;;
33579;SDS011;19909;43.644;-79.438;2023-01-20T03:11:06;0.98;;;0.88;;
33579;SDS011;19909;43.644;-79.438;2023-01-20T03:16:22;1.02;;;0.80;;
33579;SDS011;19909;43.644;-79.438;2023-01-20T03:18:50;0.85;;;0.60;;
33579;SDS011;19909;43.644;-79.438;2023-01-20T03:21:17;1.13;;;0.80;;
33579;SDS011;19909;43.644;-79.438;2023-01-20T03:23:47;1.05;;;0.80;;
33579;SDS011;19909;43.644;-79.438;2023-01-20T03:26:18;1.38;;;1.15;;
33579;SDS011;19909;43.644;-79.438;2023-01-20T03:28:46;1.08;;;0.88;;
33579;SDS011;19909;43.644;-79.438;2023-01-20T03:33:52;1.50;;;1.00;;
33579;SDS011;19909;43.644;-79.438;2023-01-20T03:36:23;1.10;;;0.90;;
33579;SDS011;19909;43.644;-79.438;2023-01-20T03:38:51;1.08;;;0.98;;
33579;SDS011;19909;43.644;-79.438;2023-01-20T03:41:23;1.02;;;0.80;;
33579;SDS011;19909;43.644;-79.438;2023-01-20T03:44:11;1.48;;;1.10;;
33579;SDS011;19909;43.644;-79.438;2023-01-20T03:46:41;1.30;;;1.02;;
33579;SDS011;19909;43.644;-79.438;2023-01-20T03:54:55;1.33;;;1.08;;
33579;SDS011;19909;43.644;-79.438;2023-01-20T03:57:28;1.17;;;1.00;;
33579;SDS011;19909;43.644;-79.438;2023-01-20T03:59:59;1.67;;;1.20;;
33579;SDS011;19909;43.644;-79.438;2023-01-20T04:02:29;1.88;;;1.10;;
33579;SDS011;19909;43.644;-79.438;2023-01-20T04:04:57;1.02;;;0.90;;
33579;SDS011;19909;43.644;-79.438;2023-01-20T04:07:26;1.17;;;0.77;;
33579;SDS011;19909;43.644;-79.438;2023-01-20T04:09:55;0.82;;;0.77;;
33579;SDS011;19909;43.644;-79.438;2023-01-20T04:12:25;2.05;;;0.90;;
33579;SDS011;19909;43.644;-79.438;2023-01-20T04:14:51;0.82;;;0.68;;
33579;SDS011;19909;43.644;-79.438;2023-01-20T04:17:17;1.30;;;0.90;;
33579;SDS011;19909;43.644;-79.438;2023-01-20T04:19:44;1.15;;;0.82;;
33579;SDS011;19909;43.644;-79.438;2023-01-20T04:27:44;1.33;;;0.65;;
33579;SDS011;19909;43.644;-79.438;2023-01-20T04:30:11;1.83;;;0.88;;
33579;SDS011;19909;43.644;-79.438;2023-01-20T04:32:39;0.80;;;0.70;;
33579;SDS011;19909;43.644;-79.438;2023-01-20T04:35:05;0.75;;;0.70;;
33579;SDS011;19909;43.644;-79.438;2023-01-20T04:37:31;0.98;;;0.77;;
33579;SDS011;19909;43.644;-79.438;2023-01-20T04:39:58;1.15;;;0.88;;
33579;SDS011;19909;43.644;-79.438;2023-01-20T04:42:24;1.17;;;0.90;;
33579;SDS011;19909;43.644;-79.438;2023-01-20T04:44:50;1.17;;;1.08;;
33579;SDS011;19909;43.644;-79.438;2023-01-20T04:47:16;1.10;;;1.00;;
33579;SDS011;19909;43.644;-79.438;2023-01-20T04:49:42;1.20;;;0.90;;
33579;SDS011;19909;43.644;-79.438;2023-01-20T04:52:09;1.55;;;1.27;;
33579;SDS011;19909;43.644;-79.438;2023-01-20T04:54:35;0.95;;;0.80;;
33579;SDS011;19909;43.644;-79.438;2023-01-20T04:57:02;1.65;;;0.63;;
33579;SDS011;19909;43.644;-79.438;2023-01-20T04:59:28;1.02;;;0.70;;
33579;SDS011;19909;43.644;-79.438;2023-01-20T05:01:54;0.57;;;0.50;;
33579;SDS011;19909;43.644;-79.438;2023-01-20T05:04:20;0.90;;;0.63;;
33579;SDS011;19909;43.644;-79.438;2023-01-20T05:06:47;1.50;;;0.90;;
33579;SDS011;19909;43.644;-79.438;2023-01-20T05:09:14;0.60;;;0.57;;
33579;SDS011;19909;43.644;-79.438;2023-01-20T05:11:41;0.80;;;0.60;;
33579;SDS011;19909;43.644;-79.438;2023-01-20T05:14:07;1.55;;;0.65;;
33579;SDS011;19909;43.644;-79.438;2023-01-20T05:16:35;1.13;;;0.65;;
33579;SDS011;19909;43.644;-79.438;2023-01-20T05:19:01;1.00;;;0.70;;
33579;SDS011;19909;43.644;-79.438;2023-01-20T05:21:27;0.80;;;0.50;;
33579;SDS011;19909;43.644;-79.438;2023-01-20T05:23:54;0.68;;;0.60;;
33579;SDS011;19909;43.644;-79.438;2023-01-20T05:26:24;0.90;;;0.80;;
33579;SDS011;19909;43.644;-79.438;2023-01-20T05:28:51;0.98;;;0.75;;
33579;SDS011;19909;43.644;-79.438;2023-01-20T05:31:17;0.90;;;0.73;;
33579;SDS011;19909;43.644;-79.438;2023-01-20T05:33:43;0.85;;;0.80;;
33579;SDS011;19909;43.644;-79.438;2023-01-20T05:36:10;0.90;;;0.80;;
33579;SDS011;19909;43.644;-79.438;2023-01-20T05:38:37;1.10;;;0.80;;
33579;SDS011;19909;43.644;-79.438;2023-01-20T05:41:04;1.17;;;0.85;;
33579;SDS011;19909;43.644;-79.438;2023-01-20T05:43:31;1.05;;;0.75;;
33579;SDS011;19909;43.644;-79.438;2023-01-20T05:45:57;1.13;;;0.80;;
33579;SDS011;19909;43.644;-79.438;2023-01-20T05:48:24;1.10;;;0.90;;
33579;SDS011;19909;43.644;-79.438;2023-01-20T05:50:50;0.98;;;0.82;;
33579;SDS011;19909;43.644;-79.438;2023-01-20T05:53:17;1.15;;;0.70;;
33579;SDS011;19909;43.644;-79.438;2023-01-20T05:55:43;0.80;;;0.70;;
33579;SDS011;19909;43.644;-79.438;2023-01-20T05:58:10;1.35;;;0.88;;
33579;SDS011;19909;43.644;-79.438;2023-01-20T06:00:36;0.82;;;0.70;;
33579;SDS011;19909;43.644;-79.438;2023-01-20T06:03:03;0.75;;;0.60;;
33579;SDS011;19909;43.644;-79.438;2023-01-20T06:05:29;0.73;;;0.60;;
33579;SDS011;19909;43.644;-79.438;2023-01-20T06:07:56;0.60;;;0.45;;
33579;SDS011;19909;43.644;-79.438;2023-01-20T06:10:23;0.90;;;0.57;;
33579;SDS011;19909;43.644;-79.438;2023-01-20T06:12:55;0.95;;;0.77;;
33579;SDS011;19909;43.644;-79.438;2023-01-20T06:15:22;0.80;;;0.65;;
33579;SDS011;19909;43.644;-79.438;2023-01-20T06:17:49;0.50;;;0.50;;
33579;SDS011;19909;43.644;-79.438;2023-01-20T06:20:16;0.98;;;0.70;;
33579;SDS011;19909;43.644;-79.438;2023-01-20T06:22:43;0.55;;;0.50;;
33579;SDS011;19909;43.644;-79.438;2023-01-20T06:25:09;0.70;;;0.50;;
33579;SDS011;19909;43.644;-79.438;2023-01-20T06:27:35;1.10;;;0.77;;
33579;SDS011;19909;43.644;-79.438;2023-01-20T06:30:03;1.08;;;0.60;;
33579;SDS011;19909;43.644;-79.438;2023-01-20T06:32:30;1.10;;;0.50;;
33579;SDS011;19909;43.644;-79.438;2023-01-20T06:34:56;0.85;;;0.80;;
33579;SDS011;19909;43.644;-79.438;2023-01-20T06:37:22;0.95;;;0.70;;
33579;SDS011;19909;43.644;-79.438;2023-01-20T06:39:48;0.77;;;0.60;;
33579;SDS011;19909;43.644;-79.438;2023-01-20T06:42:14;0.75;;;0.70;;
33579;SDS011;19909;43.644;-79.438;2023-01-20T06:44:40;0.75;;;0.60;;
33579;SDS011;19909;43.644;-79.438;2023-01-20T06:47:07;0.77;;;0.70;;
33579;SDS011;19909;43.644;-79.438;2023-01-20T06:49:34;0.70;;;0.50;;
33579;SDS011;19909;43.644;-79.438;2023-01-20T06:52:00;0.80;;;0.60;;
33579;SDS011;19909;43.644;-79.438;2023-01-20T06:54:26;0.60;;;0.40;;
33579;SDS011;19909;43.644;-79.438;2023-01-20T06:56:53;0.40;;;0.30;;
33579;SDS011;19909;43.644;-79.438;2023-01-20T06:59:19;0.30;;;0.30;;
33579;SDS011;19909;43.644;-79.438;2023-01-20T07:01:45;1.00;;;0.40;;
33579;SDS011;19909;43.644;-79.438;2023-01-20T07:04:14;0.40;;;0.30;;
33579;SDS011;19909;43.644;-79.438;2023-01-20T07:06:40;1.08;;;0.60;;
33579;SDS011;19909;43.644;-79.438;2023-01-20T07:09:09;0.95;;;0.50;;
33579;SDS011;19909;43.644;-79.438;2023-01-20T07:11:36;0.60;;;0.50;;
33579;SDS011;19909;43.644;-79.438;2023-01-20T07:14:03;1.00;;;0.40;;
33579;SDS011;19909;43.644;-79.438;2023-01-20T07:16:30;1.80;;;0.60;;
33579;SDS011;19909;43.644;-79.438;2023-01-20T07:18:57;0.60;;;0.43;;
33579;SDS011;19909;43.644;-79.438;2023-01-20T07:21:24;0.98;;;0.50;;
33579;SDS011;19909;43.644;-79.438;2023-01-20T07:23:50;0.85;;;0.55;;
33579;SDS011;19909;43.644;-79.438;2023-01-20T07:26:21;0.50;;;0.40;;
33579;SDS011;19909;43.644;-79.438;2023-01-20T07:28:50;0.82;;;0.30;;
33579;SDS011;19909;43.644;-79.438;2023-01-20T07:33:47;0.52;;;0.20;;
33579;SDS011;19909;43.644;-79.438;2023-01-20T07:36:14;0.52;;;0.20;;
33579;SDS011;19909;43.644;-79.438;2023-01-20T07:38:41;0.28;;;0.22;;
33579;SDS011;19909;43.644;-79.438;2023-01-20T07:41:10;0.60;;;0.32;;
33579;SDS011;19909;43.644;-79.438;2023-01-20T07:43:43;0.40;;;0.20;;
33579;SDS011;19909;43.644;-79.438;2023-01-20T07:46:11;0.57;;;0.38;;
33579;SDS011;19909;43.644;-79.438;2023-01-20T07:48:38;0.60;;;0.30;;
33579;SDS011;19909;43.644;-79.438;2023-01-20T07:51:05;0.38;;;0.20;;
33579;SDS011;19909;43.644;-79.438;2023-01-20T07:53:34;0.63;;;0.25;;
33579;SDS011;19909;43.644;-79.438;2023-01-20T07:56:02;0.20;;;0.20;;
33579;SDS011;19909;43.644;-79.438;2023-01-20T07:58:30;0.35;;;0.22;;
33579;SDS011;19909;43.644;-79.438;2023-01-20T08:01:04;0.30;;;0.20;;
33579;SDS011;19909;43.644;-79.438;2023-01-20T08:03:32;1.10;;;0.20;;
33579;SDS011;19909;43.644;-79.438;2023-01-20T08:06:00;0.20;;;0.20;;
33579;SDS011;19909;43.644;-79.438;2023-01-20T08:08:31;0.22;;;0.20;;
33579;SDS011;19909;43.644;-79.438;2023-01-20T08:10:58;0.43;;;0.20;;
33579;SDS011;19909;43.644;-79.438;2023-01-20T08:13:26;0.47;;;0.32;;
33579;SDS011;19909;43.644;-79.438;2023-01-20T08:15:53;0.32;;;0.10;;
33579;SDS011;19909;43.644;-79.438;2023-01-20T08:18:20;0.32;;;0.22;;
33579;SDS011;19909;43.644;-79.438;2023-01-20T08:20:46;0.35;;;0.10;;
33579;SDS011;19909;43.644;-79.438;2023-01-20T08:23:13;0.40;;;0.20;;
33579;SDS011;19909;43.644;-79.438;2023-01-20T08:25:39;0.47;;;0.10;;
33579;SDS011;19909;43.644;-79.438;2023-01-20T08:28:05;1.17;;;0.20;;
33579;SDS011;19909;43.644;-79.438;2023-01-20T08:30:31;0.40;;;0.10;;
33579;SDS011;19909;43.644;-79.438;2023-01-20T08:32:57;0.15;;;0.15;;
33579;SDS011;19909;43.644;-79.438;2023-01-20T08:35:24;0.70;;;0.20;;
33579;SDS011;19909;43.644;-79.438;2023-01-20T08:37:51;0.50;;;0.10;;
33579;SDS011;19909;43.644;-79.438;2023-01-20T08:40:17;1.00;;;0.20;;
33579;SDS011;19909;43.644;-79.438;2023-01-20T08:42:43;0.10;;;0.10;;
33579;SDS011;19909;43.644;-79.438;2023-01-20T08:45:10;0.13;;;0.10;;
33579;SDS011;19909;43.644;-79.438;2023-01-20T08:47:37;0.20;;;0.10;;
33579;SDS011;19909;43.644;-79.438;2023-01-20T08:50:08;0.22;;;0.10;;
33579;SDS011;19909;43.644;-79.438;2023-01-20T08:52:36;0.05;;;0.03;;
33579;SDS011;19909;43.644;-79.438;2023-01-20T08:55:03;0.10;;;0.10;;
33579;SDS011;19909;43.644;-79.438;2023-01-20T08:57:30;0.60;;;0.10;;
33579;SDS011;19909;43.644;-79.438;2023-01-20T08:59:56;1.05;;;0.10;;
33579;SDS011;19909;43.644;-79.438;2023-01-20T09:02:22;0.10;;;0.00;;
33579;SDS011;19909;43.644;-79.438;2023-01-20T09:04:49;0.10;;;0.10;;
33579;SDS011;19909;43.644;-79.438;2023-01-20T09:07:16;0.10;;;0.10;;
33579;SDS011;19909;43.644;-79.438;2023-01-20T09:09:43;0.17;;;0.17;;
33579;SDS011;19909;43.644;-79.438;2023-01-20T09:12:10;0.10;;;0.10;;
33579;SDS011;19909;43.644;-79.438;2023-01-20T09:14:36;0.10;;;0.10;;
33579;SDS011;19909;43.644;-79.438;2023-01-20T09:17:04;0.43;;;0.10;;
33579;SDS011;19909;43.644;-79.438;2023-01-20T09:19:30;0.35;;;0.05;;
33579;SDS011;19909;43.644;-79.438;2023-01-20T09:21:56;0.20;;;0.10;;
33579;SDS011;19909;43.644;-79.438;2023-01-20T09:24:22;0.13;;;0.10;;
33579;SDS011;19909;43.644;-79.438;2023-01-20T09:26:49;0.00;;;0.00;;
33579;SDS011;19909;43.644;-79.438;2023-01-20T09:29:16;0.00;;;0.00;;
33579;SDS011;19909;43.644;-79.438;2023-01-20T09:31:47;0.10;;;0.05;;
33579;SDS011;19909;43.644;-79.438;2023-01-20T09:34:16;0.10;;;0.10;;
33579;SDS011;19909;43.644;-79.438;2023-01-20T09:36:51;0.00;;;0.00;;
33579;SDS011;19909;43.644;-79.438;2023-01-20T09:39:18;0.10;;;0.10;;
33579;SDS011;19909;43.644;-79.438;2023-01-20T09:45:37;0.20;;;0.10;;
33579;SDS011;19909;43.644;-79.438;2023-01-20T09:48:20;0.47;;;0.20;;
33579;SDS011;19909;43.644;-79.438;2023-01-20T09:51:45;0.15;;;0.10;;
33579;SDS011;19909;43.644;-79.438;2023-01-20T09:54:37;0.28;;;0.10;;
33579;SDS011;19909;43.644;-79.438;2023-01-20T09:57:09;0.00;;;0.00;;
33579;SDS011;19909;43.644;-79.438;2023-01-20T09:59:38;0.28;;;0.10;;
33579;SDS011;19909;43.644;-79.438;2023-01-20T10:02:16;0.10;;;0.00;;
33579;SDS011;19909;43.644;-79.438;2023-01-20T10:04:48;0.10;;;0.08;;
33579;SDS011;19909;43.644;-79.438;2023-01-20T10:07:21;0.33;;;0.03;;
33579;SDS011;19909;43.644;-79.438;2023-01-20T10:13:03;0.10;;;0.10;;
33579;SDS011;19909;43.644;-79.438;2023-01-20T10:15:40;0.30;;;0.10;;
33579;SDS011;19909;43.644;-79.438;2023-01-20T10:18:12;0.43;;;0.10;;
33579;SDS011;19909;43.644;-79.438;2023-01-20T10:20:49;0.80;;;0.10;;
33579;SDS011;19909;43.644;-79.438;2023-01-20T10:23:27;0.30;;;0.13;;
33579;SDS011;19909;43.644;-79.438;2023-01-20T10:26:07;0.00;;;0.00;;
33579;SDS011;19909;43.644;-79.438;2023-01-20T10:29:12;0.20;;;0.10;;
33579;SDS011;19909;43.644;-79.438;2023-01-20T10:31:47;0.25;;;0.10;;
33579;SDS011;19909;43.644;-79.438;2023-01-20T10:34:18;0.22;;;0.20;;
33579;SDS011;19909;43.644;-79.438;2023-01-20T10:36:52;0.20;;;0.20;;
33579;SDS011;19909;43.644;-79.438;2023-01-20T10:39:30;0.30;;;0.10;;
33579;SDS011;19909;43.644;-79.438;2023-01-20T10:42:03;0.20;;;0.20;;
33579;SDS011;19909;43.644;-79.438;2023-01-20T10:44:34;0.10;;;0.10;;
33579;SDS011;19909;43.644;-79.438;2023-01-20T11:01:15;0.20;;;0.20;;
33579;SDS011;19909;43.644;-79.438;2023-01-20T11:03:46;0.20;;;0.20;;
33579;SDS011;19909;43.644;-79.438;2023-01-20T11:06:16;0.57;;;0.20;;
33579;SDS011;19909;43.644;-79.438;2023-01-20T11:08:44;0.43;;;0.20;;
33579;SDS011;19909;43.644;-79.438;2023-01-20T11:11:16;0.20;;;0.20;;
33579;SDS011;19909;43.644;-79.438;2023-01-20T11:13:45;0.20;;;0.13;;
33579;SDS011;19909;43.644;-79.438;2023-01-20T11:16:16;0.70;;;0.22;;
33579;SDS011;19909;43.644;-79.438;2023-01-20T11:18:56;0.40;;;0.30;;
33579;SDS011;19909;43.644;-79.438;2023-01-20T11:21:28;0.43;;;0.30;;
33579;SDS011;19909;43.644;-79.438;2023-01-20T11:23:58;0.20;;;0.20;;
33579;SDS011;19909;43.644;-79.438;2023-01-20T11:26:29;0.20;;;0.20;;
33579;SDS011;19909;43.644;-79.438;2023-01-20T11:29:01;0.63;;;0.22;;
33579;SDS011;19909;43.644;-79.438;2023-01-20T11:31:51;0.25;;;0.10;;
33579;SDS011;19909;43.644;-79.438;2023-01-20T11:39:55;1.20;;;0.40;;
33579;SDS011;19909;43.644;-79.438;2023-01-20T11:42:25;0.52;;;0.40;;
33579;SDS011;19909;43.644;-79.438;2023-01-20T11:45:02;2.35;;;0.65;;
33579;SDS011;19909;43.644;-79.438;2023-01-20T11:47:33;0.38;;;0.30;;
33579;SDS011;19909;43.644;-79.438;2023-01-20T11:52:34;0.52;;;0.40;;
33579;SDS011;19909;43.644;-79.438;2023-01-20T12:00:40;0.75;;;0.50;;
33579;SDS011;19909;43.644;-79.438;2023-01-20T12:08:22;0.38;;;0.38;;
33579;SDS011;19909;43.644;-79.438;2023-01-20T12:10:57;0.77;;;0.60;;
33579;SDS011;19909;43.644;-79.438;2023-01-20T12:13:27;0.70;;;0.52;;
33579;SDS011;19909;43.644;-79.438;2023-01-20T12:16:26;0.75;;;0.55;;
33579;SDS011;19909;43.644;-79.438;2023-01-20T12:18:56;0.65;;;0.40;;
33579;SDS011;19909;43.644;-79.438;2023-01-20T12:21:28;0.40;;;0.32;;
33579;SDS011;19909;43.644;-79.438;2023-01-20T12:24:08;0.93;;;0.50;;
33579;SDS011;19909;43.644;-79.438;2023-01-20T12:26:46;0.68;;;0.50;;
33579;SDS011;19909;43.644;-79.438;2023-01-20T12:31:58;0.57;;;0.47;;
33579;SDS011;19909;43.644;-79.438;2023-01-20T12:34:28;0.90;;;0.60;;
33579;SDS011;19909;43.644;-79.438;2023-01-20T12:45:19;1.02;;;0.60;;
33579;SDS011;19909;43.644;-79.438;2023-01-20T12:50:46;0.93;;;0.60;;
33579;SDS011;19909;43.644;-79.438;2023-01-20T12:56:18;0.85;;;0.45;;
33579;SDS011;19909;43.644;-79.438;2023-01-20T13:04:09;1.20;;;0.60;;
33579;SDS011;19909;43.644;-79.438;2023-01-20T13:12:34;0.85;;;0.60;;
33579;SDS011;19909;43.644;-79.438;2023-01-20T13:15:18;0.80;;;0.57;;
33579;SDS011;19909;43.644;-79.438;2023-01-20T13:20:49;0.68;;;0.40;;
33579;SDS011;19909;43.644;-79.438;2023-01-20T13:23:19;0.43;;;0.30;;
33579;SDS011;19909;43.644;-79.438;2023-01-20T13:25:50;0.68;;;0.40;;
33579;SDS011;19909;43.644;-79.438;2023-01-20T13:28:18;1.15;;;0.40;;
33579;SDS011;19909;43.644;-79.438;2023-01-20T13:30:53;0.63;;;0.47;;
33579;SDS011;19909;43.644;-79.438;2023-01-20T13:33:36;0.30;;;0.30;;
33579;SDS011;19909;43.644;-79.438;2023-01-20T13:36:17;0.38;;;0.38;;
33579;SDS011;19909;43.644;-79.438;2023-01-20T13:38:45;2.05;;;0.32;;
33579;SDS011;19909;43.644;-79.438;2023-01-20T13:41:44;0.65;;;0.47;;
33579;SDS011;19909;43.644;-79.438;2023-01-20T13:46:59;1.70;;;0.52;;
33579;SDS011;19909;43.644;-79.438;2023-01-20T13:49:27;1.13;;;0.50;;
33579;SDS011;19909;43.644;-79.438;2023-01-20T13:52:08;0.80;;;0.50;;
33579;SDS011;19909;43.644;-79.438;2023-01-20T13:54:36;0.68;;;0.38;;
33579;SDS011;19909;43.644;-79.438;2023-01-20T13:57:53;0.57;;;0.35;;
33579;SDS011;19909;43.644;-79.438;2023-01-20T13:59:58;0.93;;;0.40;;
33579;SDS011;19909;43.644;-79.438;2023-01-20T14:02:25;0.80;;;0.40;;
33579;SDS011;19909;43.644;-79.438;2023-01-20T14:04:51;0.68;;;0.40;;
33579;SDS011;19909;43.644;-79.438;2023-01-20T14:07:21;2.92;;;0.60;;
33579;SDS011;19909;43.644;-79.438;2023-01-20T14:09:52;0.52;;;0.40;;
33579;SDS011;19909;43.644;-79.438;2023-01-20T14:12:19;0.65;;;0.50;;
33579;SDS011;19909;43.644;-79.438;2023-01-20T14:14:46;0.50;;;0.40;;
33579;SDS011;19909;43.644;-79.438;2023-01-20T14:17:16;0.50;;;0.40;;
33579;SDS011;19909;43.644;-79.438;2023-01-20T14:19:47;0.70;;;0.40;;
33579;SDS011;19909;43.644;-79.438;2023-01-20T14:22:16;0.65;;;0.55;;
33579;SDS011;19909;43.644;-79.438;2023-01-20T14:24:50;0.68;;;0.50;;
33579;SDS011;19909;43.644;-79.438;2023-01-20T14:29:53;1.25;;;0.47;;
33579;SDS011;19909;43.644;-79.438;2023-01-20T14:32:28;0.68;;;0.50;;
33579;SDS011;19909;43.644;-79.438;2023-01-20T14:34:58;0.40;;;0.40;;
33579;SDS011;19909;43.644;-79.438;2023-01-20T14:37:35;0.43;;;0.30;;
33579;SDS011;19909;43.644;-79.438;2023-01-20T14:42:33;0.22;;;0.20;;
33579;SDS011;19909;43.644;-79.438;2023-01-20T14:45:00;1.00;;;0.50;;
33579;SDS011;19909;43.644;-79.438;2023-01-20T14:47:27;0.32;;;0.30;;
33579;SDS011;19909;43.644;-79.438;2023-01-20T14:49:55;0.43;;;0.30;;
33579;SDS011;19909;43.644;-79.438;2023-01-20T14:52:23;0.60;;;0.28;;
33579;SDS011;19909;43.644;-79.438;2023-01-20T14:54:53;0.20;;;0.20;;
33579;SDS011;19909;43.644;-79.438;2023-01-20T14:57:24;1.17;;;0.30;;
33579;SDS011;19909;43.644;-79.438;2023-01-20T15:00:10;0.28;;;0.20;;
33579;SDS011;19909;43.644;-79.438;2023-01-20T15:05:41;0.35;;;0.22;;
33579;SDS011;19909;43.644;-79.438;2023-01-20T15:08:21;0.30;;;0.27;;
33579;SDS011;19909;43.644;-79.438;2023-01-20T15:16:18;0.30;;;0.30;;
33579;SDS011;19909;43.644;-79.438;2023-01-20T15:21:34;0.10;;;0.10;;
33579;SDS011;19909;43.644;-79.438;2023-01-20T15:24:17;0.32;;;0.10;;
33579;SDS011;19909;43.644;-79.438;2023-01-20T15:27:01;0.68;;;0.10;;
33579;SDS011;19909;43.644;-79.438;2023-01-20T15:29:56;0.93;;;0.20;;
33579;SDS011;19909;43.644;-79.438;2023-01-20T15:32:25;0.10;;;0.10;;
33579;SDS011;19909;43.644;-79.438;2023-01-20T15:34:52;0.20;;;0.20;;
33579;SDS011;19909;43.644;-79.438;2023-01-20T15:37:18;0.43;;;0.25;;
33579;SDS011;19909;43.644;-79.438;2023-01-20T15:39:44;0.40;;;0.20;;
33579;SDS011;19909;43.644;-79.438;2023-01-20T15:42:11;0.38;;;0.15;;
33579;SDS011;19909;43.644;-79.438;2023-01-20T15:44:39;0.60;;;0.20;;
33579;SDS011;19909;43.644;-79.438;2023-01-20T15:47:39;0.13;;;0.10;;
33579;SDS011;19909;43.644;-79.438;2023-01-20T15:49:58;0.20;;;0.20;;
33579;SDS011;19909;43.644;-79.438;2023-01-20T15:52:25;0.10;;;0.10;;
33579;SDS011;19909;43.644;-79.438;2023-01-20T15:54:51;0.30;;;0.30;;
33579;SDS011;19909;43.644;-79.438;2023-01-20T15:57:17;0.17;;;0.00;;
33579;SDS011;19909;43.644;-79.438;2023-01-20T15:59:43;0.30;;;0.10;;
33579;SDS011;19909;43.644;-79.438;2023-01-20T16:02:15;0.75;;;0.20;;
33579;SDS011;19909;43.644;-79.438;2023-01-20T16:07:12;0.50;;;0.20;;
33579;SDS011;19909;43.644;-79.438;2023-01-20T16:09:40;0.22;;;0.20;;
33579;SDS011;19909;43.644;-79.438;2023-01-20T16:12:10;0.85;;;0.10;;
33579;SDS011;19909;43.644;-79.438;2023-01-20T16:14:41;0.30;;;0.22;;
33579;SDS011;19909;43.644;-79.438;2023-01-20T16:17:13;0.45;;;0.20;;
33579;SDS011;19909;43.644;-79.438;2023-01-20T16:19:45;0.25;;;0.20;;
33579;SDS011;19909;43.644;-79.438;2023-01-20T16:22:11;0.73;;;0.20;;
33579;SDS011;19909;43.644;-79.438;2023-01-20T16:24:38;0.40;;;0.20;;
33579;SDS011;19909;43.644;-79.438;2023-01-20T16:27:26;0.70;;;0.30;;
33579;SDS011;19909;43.644;-79.438;2023-01-20T16:29:51;0.40;;;0.10;;
33579;SDS011;19909;43.644;-79.438;2023-01-20T16:32:18;0.93;;;0.28;;
33579;SDS011;19909;43.644;-79.438;2023-01-20T16:34:45;0.40;;;0.20;;
33579;SDS011;19909;43.644;-79.438;2023-01-20T16:37:12;0.15;;;0.10;;
33579;SDS011;19909;43.644;-79.438;2023-01-20T16:39:38;0.30;;;0.20;;
33579;SDS011;19909;43.644;-79.438;2023-01-20T16:42:05;0.20;;;0.20;;
33579;SDS011;19909;43.644;-79.438;2023-01-20T16:44:31;0.52;;;0.20;;